Middleton Island, Alaska

10:34 PM AKDT on September 29, 2016 (GMT -0800)
Seward | | Change Station

Elev 20 ft 60.13 °N, 149.42 °W | Updated 41 minutes ago

Clear
Clear
51 °F
Feels Like 51 °F
N
22
Wind Variable Wind from North
Gusts 28 mph

Today
High -- | Low -- °F
--% Chance of Precip.
Yesterday
High -- | Low -- °F
Precip. -- in
Pressure 30.48 in
Visibility 10.0 miles
Clouds Clear
Dew Point 34 °F
Humidity 52%
Rainfall 0.00 in
Snow Depth Not available.
7:47 AM 7:21 PM
Waning Crescent, 1% visible
METAR PAWD 300553Z AUTO 36019G24KT 10SM CLR 11/01 A3048 RMK AO2 SLP320 T01060011 10161 20100 53007 TSNO
Pressure 30.48 in
Visibility 10.0 miles
Clouds Clear
Dew Point 34 °F
Humidity 52%
Rainfall 0.00 in
Snow Depth Not available.
7:47 AM 7:21 PM
Waning Crescent, 1% visible
METAR PAWD 300553Z AUTO 36019G24KT 10SM CLR 11/01 A3048 RMK AO2 SLP320 T01060011 10161 20100 53007 TSNO

10-Day Weather Forecast

Almanac

Astronomy

Sep. 29, 2016 Rise Set
Actual Time
Civil Twilight
Nautical Twilight
Astronomical Twilight
Moon
Length of Visible Light
Length of Day
Tomorrow will be .
, % of the Moon is Illuminated

Today's Extremes

State Highs State Lows

Community

WunderPhotos

Upload Photos

1,942,668 photos uploaded!

WunderBlog® & News

Nearby

Air Quality

  Air Quality AQ Index Pollutant
Not available.

Snow Depth

Station Depth Elevation

Earthquake Activity

City Distance Mag. Time & Date
Minimum magnitude displayed is 2.5.

Coastal Water Temperatures

Place Temperature

Stations

Nearby Weather Stations

Station Location Temp. Windchill Dew Point Humidity Wind Precip. Elev Updated Type
                   

Watches & Warnings

There are currently no watches in effect.